Station: ELLX - 25/02/2021 03:50Z (il y a 31 minutes)
ELLX 250350Z 18004KT CAVOK 07/03 Q1027 NOSIG
Vent du 180º - 4 kt
Visibilité > 10 km et plafond haut ou pas de nuages significatifs
Température: +07ºC - Point de rosée: +03ºC - QNH: 1027 hPa
Pas de changement significatif prévu dans les 2 heures qui suivent l'observation